createdAt,value
2023-02-24T00:02:05.560Z,5.31
2023-02-24T00:04:35.789Z,5.27
2023-02-24T00:07:02.971Z,4.98
2023-02-24T00:09:31.123Z,5.11
2023-02-24T00:12:10.153Z,4.85
2023-02-24T00:14:39.552Z,5.15
2023-02-24T00:17:09.830Z,5.13
2023-02-24T00:19:37.783Z,5.37
2023-02-24T00:22:07.177Z,5.33
2023-02-24T00:24:33.925Z,5.37
2023-02-24T00:27:02.346Z,5.58
2023-02-24T00:29:30.050Z,5.68
2023-02-24T00:32:01.736Z,5.44
2023-02-24T00:34:31.033Z,5.41
2023-02-24T00:36:58.165Z,5.39
2023-02-24T00:39:33.495Z,5.46
2023-02-24T00:42:06.727Z,5.45
2023-02-24T00:44:44.955Z,5.41
2023-02-24T00:47:12.592Z,5.32
2023-02-24T00:49:42.431Z,5.12
2023-02-24T00:52:15.511Z,5.34
2023-02-24T00:54:44.552Z,5.21
2023-02-24T00:57:11.502Z,4.97
2023-02-24T00:59:39.368Z,5.16
2023-02-24T01:02:11.421Z,4.90
2023-02-24T01:04:38.721Z,4.89
2023-02-24T01:07:10.738Z,5.09
2023-02-24T01:09:39.587Z,5.15
2023-02-24T01:12:38.240Z,5.00
2023-02-24T01:15:11.213Z,5.14
2023-02-24T01:17:39.264Z,5.11
2023-02-24T01:20:18.245Z,4.95
2023-02-24T01:22:51.234Z,5.23
2023-02-24T01:25:20.283Z,5.41
2023-02-24T01:27:47.125Z,5.34
2023-02-24T01:30:15.862Z,5.34
2023-02-24T01:32:43.771Z,5.24
2023-02-24T01:35:12.078Z,5.32
2023-02-24T01:37:39.250Z,5.34
2023-02-24T01:40:20.548Z,5.30
2023-02-24T01:42:47.690Z,5.40
2023-02-24T01:45:21.447Z,5.27
2023-02-24T01:47:49.140Z,5.22
2023-02-24T01:50:17.751Z,5.30
2023-02-24T01:52:49.092Z,5.37
2023-02-24T01:55:40.758Z,5.55
2023-02-24T01:58:15.507Z,5.46
2023-02-24T02:00:46.801Z,5.40
2023-02-24T02:03:35.182Z,5.64
2023-02-24T02:06:11.128Z,5.66
2023-02-24T02:08:40.852Z,5.53
2023-02-24T02:11:11.376Z,5.59
2023-02-24T02:13:43.166Z,5.58
2023-02-24T02:16:34.837Z,5.68
2023-02-24T02:19:25.666Z,5.70
2023-02-24T02:22:05.880Z,5.68
2023-02-24T02:25:07.229Z,5.60
2023-02-24T02:27:45.387Z,5.61
2023-02-24T02:30:15.001Z,5.63
2023-02-24T02:32:52.530Z,5.64
2023-02-24T02:35:26.550Z,5.68
2023-02-24T02:38:04.158Z,5.25
2023-02-24T02:40:52.507Z,4.89
2023-02-24T02:43:39.630Z,5.04
2023-02-24T02:46:34.658Z,5.13
2023-02-24T02:49:17.973Z,5.22
2023-02-24T02:51:53.933Z,5.26
2023-02-24T02:54:32.627Z,5.32
2023-02-24T02:57:08.606Z,5.19
2023-02-24T02:59:41.641Z,5.18
2023-02-24T03:02:13.118Z,5.44
2023-02-24T03:04:44.877Z,5.40
2023-02-24T03:07:16.725Z,5.40
2023-02-24T03:09:50.541Z,5.49
2023-02-24T03:12:22.305Z,5.33
2023-02-24T03:14:56.725Z,5.39
2023-02-24T03:17:26.814Z,5.29
2023-02-24T03:20:01.760Z,5.13
2023-02-24T03:22:35.997Z,5.34
2023-02-24T03:25:05.178Z,5.51
2023-02-24T03:27:49.572Z,5.27
2023-02-24T03:30:26.971Z,5.49
2023-02-24T03:33:05.237Z,5.32
2023-02-24T03:35:42.071Z,5.39
2023-02-24T03:38:10.167Z,5.27
2023-02-24T03:40:39.291Z,5.33
2023-02-24T03:43:16.914Z,5.42
2023-02-24T03:45:46.381Z,5.52
2023-02-24T03:48:13.305Z,5.29
2023-02-24T03:50:42.271Z,5.16
2023-02-24T03:53:51.912Z,5.21
2023-02-24T03:56:45.891Z,5.01
2023-02-24T03:59:33.423Z,5.16
2023-02-24T04:02:17.699Z,5.18
2023-02-24T04:05:24.035Z,5.37
2023-02-24T04:08:08.669Z,5.36
2023-02-24T04:10:53.803Z,5.31
2023-02-24T04:13:36.144Z,5.39
2023-02-24T04:16:36.361Z,4.87
2023-02-24T04:19:09.178Z,5.53
2023-02-24T04:21:39.998Z,5.36
2023-02-24T04:24:11.926Z,5.09
2023-02-24T04:26:40.591Z,5.02
2023-02-24T04:29:09.785Z,4.88
2023-02-24T04:31:39.021Z,4.96
2023-02-24T04:34:09.456Z,5.12
2023-02-24T04:36:38.642Z,5.25
2023-02-24T04:39:07.158Z,5.17
2023-02-24T04:41:35.795Z,5.27
2023-02-24T04:44:02.391Z,5.16
2023-02-24T04:46:32.361Z,4.72
2023-02-24T04:49:00.377Z,4.94
2023-02-24T04:51:27.000Z,5.04
2023-02-24T04:53:55.399Z,5.08
2023-02-24T04:56:22.445Z,5.03
2023-02-24T04:58:49.112Z,5.25
2023-02-24T05:01:15.706Z,5.36
2023-02-24T05:03:43.331Z,5.25
2023-02-24T05:06:16.111Z,5.39
2023-02-24T05:08:43.620Z,4.98
2023-02-24T05:11:16.187Z,4.88
2023-02-24T05:13:45.812Z,4.70
2023-02-24T05:16:14.191Z,4.58
2023-02-24T05:18:40.919Z,4.66
2023-02-24T05:21:29.138Z,4.72
2023-02-24T05:23:58.284Z,4.80
2023-02-24T05:26:25.804Z,4.95
2023-02-24T05:28:56.423Z,4.53
2023-02-24T05:31:28.934Z,4.69
2023-02-24T05:34:01.432Z,4.91
2023-02-24T05:36:32.393Z,4.96
2023-02-24T05:38:59.542Z,4.86
2023-02-24T05:41:35.634Z,5.13
2023-02-24T05:44:09.243Z,4.66
2023-02-24T05:46:39.699Z,5.00
2023-02-24T05:49:14.212Z,4.93
2023-02-24T05:51:43.496Z,4.81
2023-02-24T05:54:13.333Z,4.78
2023-02-24T05:56:44.769Z,4.78
2023-02-24T05:59:18.147Z,4.72
2023-02-24T06:01:47.647Z,4.68
2023-02-24T06:04:33.547Z,4.61
2023-02-24T06:07:03.677Z,4.48
2023-02-24T06:09:30.273Z,4.42
2023-02-24T06:11:56.881Z,4.64
2023-02-24T06:14:24.526Z,4.64
2023-02-24T06:16:51.360Z,4.70
2023-02-24T06:19:17.910Z,4.82
2023-02-24T06:21:44.507Z,4.79
2023-02-24T06:24:18.279Z,5.01
2023-02-24T06:26:45.815Z,5.16
2023-02-24T06:29:14.853Z,5.13
2023-02-24T06:31:43.162Z,4.98
2023-02-24T06:34:10.887Z,5.01
2023-02-24T06:36:38.113Z,5.08
2023-02-24T06:39:08.209Z,5.01
2023-02-24T06:41:37.888Z,5.03
2023-02-24T06:44:04.712Z,4.59
2023-02-24T06:46:31.948Z,4.81
2023-02-24T06:48:58.617Z,4.93
2023-02-24T06:51:30.057Z,4.36
2023-02-24T06:53:59.398Z,4.97
2023-02-24T06:56:27.597Z,5.04
2023-02-24T06:58:56.329Z,4.73
2023-02-24T07:01:26.119Z,4.74
2023-02-24T07:04:07.366Z,4.50
2023-02-24T07:06:38.186Z,4.48
2023-02-24T07:09:10.757Z,4.67
2023-02-24T07:11:41.437Z,4.85
2023-02-24T07:14:11.224Z,4.94
2023-02-24T07:16:41.471Z,4.86
2023-02-24T07:19:13.836Z,4.97
2023-02-24T07:21:59.725Z,5.09
2023-02-24T07:24:36.119Z,5.17
2023-02-24T07:27:10.878Z,5.18
2023-02-24T07:29:38.380Z,5.10
2023-02-24T07:32:09.073Z,5.29
2023-02-24T07:34:39.928Z,5.19
2023-02-24T07:37:08.495Z,5.41
2023-02-24T07:39:37.032Z,5.42
2023-02-24T07:42:05.420Z,5.42
2023-02-24T07:44:44.563Z,5.12
2023-02-24T07:47:11.249Z,5.11
2023-02-24T07:49:40.910Z,5.33
2023-02-24T07:52:08.405Z,5.15
2023-02-24T07:54:35.050Z,5.38
2023-02-24T07:57:01.726Z,5.59
2023-02-24T07:59:32.405Z,5.66
2023-02-24T08:02:00.528Z,5.67
2023-02-24T08:04:30.001Z,5.64
2023-02-24T08:06:58.818Z,5.73
2023-02-24T08:09:45.902Z,5.73
2023-02-24T08:12:18.302Z,5.74
2023-02-24T08:14:50.731Z,5.77
2023-02-24T08:17:26.521Z,5.50
2023-02-24T08:20:13.021Z,5.57
2023-02-24T08:22:46.589Z,5.84
2023-02-24T08:25:18.313Z,5.84
2023-02-24T08:28:05.997Z,5.73
2023-02-24T08:30:44.897Z,5.53
2023-02-24T08:33:18.353Z,5.55
2023-02-24T08:35:45.401Z,5.61
2023-02-24T08:38:18.571Z,5.83
2023-02-24T08:40:51.551Z,5.91
2023-02-24T08:43:30.101Z,5.90
2023-02-24T08:46:18.699Z,5.76
2023-02-24T08:48:55.448Z,5.90
2023-02-24T08:51:29.719Z,5.89
2023-02-24T08:53:59.617Z,5.87
2023-02-24T08:56:29.635Z,5.94
2023-02-24T08:59:05.698Z,5.69
2023-02-24T09:01:37.164Z,5.88
2023-02-24T09:04:13.084Z,5.96
2023-02-24T09:06:47.563Z,6.00
2023-02-24T09:09:17.624Z,6.03
2023-02-24T09:11:56.351Z,6.01
2023-02-24T09:14:36.355Z,6.03
2023-02-24T09:17:06.457Z,6.13
2023-02-24T09:19:46.554Z,6.13
2023-02-24T09:22:57.732Z,6.16
2023-02-24T09:25:26.043Z,6.13
2023-02-24T09:28:17.571Z,5.88
2023-02-24T09:30:51.338Z,6.08
2023-02-24T09:33:27.449Z,6.05
2023-02-24T09:36:10.821Z,6.09
2023-02-24T09:38:57.309Z,6.01
2023-02-24T09:41:33.432Z,5.98
2023-02-24T09:44:07.620Z,6.05
2023-02-24T09:46:40.826Z,5.86
2023-02-24T09:49:17.214Z,6.04
2023-02-24T09:51:44.807Z,5.97
2023-02-24T09:54:18.841Z,5.98
2023-02-24T09:57:08.358Z,5.95
2023-02-24T10:00:16.247Z,6.02
2023-02-24T10:03:00.166Z,5.85
2023-02-24T10:05:59.357Z,6.09
2023-02-24T10:08:38.234Z,6.14
2023-02-24T10:11:08.360Z,6.02
2023-02-24T10:13:52.995Z,6.12
2023-02-24T10:16:24.061Z,6.20
2023-02-24T10:19:17.651Z,6.04
2023-02-24T10:22:23.046Z,6.22
2023-02-24T10:25:01.450Z,6.26
2023-02-24T10:28:06.875Z,6.44
2023-02-24T10:31:10.255Z,6.42
2023-02-24T10:33:46.348Z,6.11
2023-02-24T10:36:18.170Z,6.30
2023-02-24T10:38:46.033Z,6.42
2023-02-24T10:41:14.701Z,6.29
2023-02-24T10:43:53.875Z,6.29
2023-02-24T10:46:39.993Z,6.43
2023-02-24T10:49:15.718Z,6.41
2023-02-24T10:51:47.690Z,6.63
2023-02-24T10:54:34.011Z,6.72
2023-02-24T10:57:29.637Z,6.89
2023-02-24T11:00:17.754Z,6.81
2023-02-24T11:02:57.636Z,7.02
2023-02-24T11:05:37.951Z,7.09
2023-02-24T11:08:07.767Z,7.22
2023-02-24T11:10:52.948Z,7.03
2023-02-24T11:13:39.320Z,7.26
2023-02-24T11:16:27.577Z,7.26
2023-02-24T11:18:55.715Z,7.34
2023-02-24T11:21:26.185Z,7.17
2023-02-24T11:24:05.441Z,7.03
2023-02-24T11:26:36.979Z,7.08
2023-02-24T11:29:17.463Z,7.21
2023-02-24T11:32:09.086Z,7.28
2023-02-24T11:34:49.535Z,7.58
2023-02-24T11:37:43.413Z,7.56
2023-02-24T11:40:10.568Z,7.50
2023-02-24T11:43:07.426Z,7.57
2023-02-24T11:45:47.241Z,7.52
2023-02-24T11:48:25.228Z,7.31
2023-02-24T11:51:13.834Z,7.70
2023-02-24T11:53:51.480Z,7.63
2023-02-24T11:56:20.926Z,7.68
2023-02-24T11:59:06.276Z,7.56
2023-02-24T12:01:40.997Z,7.41
2023-02-24T12:04:10.600Z,7.26
2023-02-24T12:06:53.484Z,6.99
2023-02-24T12:09:24.431Z,6.80
2023-02-24T12:12:00.935Z,7.18
2023-02-24T12:14:34.647Z,7.44
2023-02-24T12:17:35.050Z,7.49
2023-02-24T12:20:47.683Z,7.53
2023-02-24T12:23:34.534Z,7.30
2023-02-24T12:26:25.557Z,7.42
2023-02-24T12:29:24.580Z,7.39
2023-02-24T12:32:01.785Z,7.36
2023-02-24T12:34:31.546Z,7.35
2023-02-24T12:37:13.098Z,7.31
2023-02-24T12:39:56.422Z,7.02
2023-02-24T12:42:46.751Z,7.18
2023-02-24T12:45:22.028Z,7.02
2023-02-24T12:48:19.036Z,6.98
2023-02-24T12:50:59.385Z,6.74
2023-02-24T12:53:29.068Z,6.95
2023-02-24T12:56:15.838Z,6.95
2023-02-24T12:58:45.990Z,6.99
2023-02-24T13:01:32.685Z,7.13
2023-02-24T13:04:21.918Z,7.11
2023-02-24T13:07:07.248Z,7.13
2023-02-24T13:09:38.801Z,7.06
2023-02-24T13:12:43.388Z,7.21
2023-02-24T13:15:21.967Z,7.31
2023-02-24T13:17:51.832Z,7.13
2023-02-24T13:20:38.477Z,7.31
2023-02-24T13:23:20.186Z,7.72
2023-02-24T13:25:55.583Z,7.81
2023-02-24T13:28:33.316Z,7.52
2023-02-24T13:31:11.802Z,7.43
2023-02-24T13:33:43.508Z,7.16
2023-02-24T13:36:23.681Z,7.45
2023-02-24T13:39:03.793Z,7.62
2023-02-24T13:41:30.361Z,7.55
2023-02-24T13:43:57.935Z,7.50
2023-02-24T13:46:28.326Z,7.41
2023-02-24T13:49:02.999Z,7.32
2023-02-24T13:51:41.963Z,7.28
2023-02-24T13:54:08.795Z,7.26
2023-02-24T13:56:56.301Z,7.21
2023-02-24T13:59:29.160Z,7.27
2023-02-24T14:01:58.855Z,7.21
2023-02-24T14:04:31.785Z,7.09
2023-02-24T14:07:03.643Z,7.18
2023-02-24T14:09:46.360Z,7.17
2023-02-24T14:12:18.470Z,7.05
2023-02-24T14:14:46.488Z,6.94
2023-02-24T14:17:26.338Z,7.07
2023-02-24T14:19:52.910Z,6.97
2023-02-24T14:22:21.373Z,7.02
2023-02-24T14:24:48.404Z,6.67
2023-02-24T14:27:24.427Z,6.71
2023-02-24T14:29:52.817Z,6.98
2023-02-24T14:32:22.394Z,6.98
2023-02-24T14:34:50.021Z,6.77
2023-02-24T14:37:17.388Z,6.77
2023-02-24T14:39:55.178Z,6.94
2023-02-24T14:42:22.213Z,6.89
2023-02-24T14:44:59.492Z,6.72
2023-02-24T14:47:28.879Z,6.78
2023-02-24T14:50:02.336Z,6.64
2023-02-24T14:52:35.233Z,6.79
2023-02-24T14:55:04.747Z,6.84
2023-02-24T14:57:38.180Z,6.81
2023-02-24T15:00:30.418Z,6.68
2023-02-24T15:03:17.454Z,6.73
2023-02-24T15:05:48.579Z,6.58
2023-02-24T15:08:27.285Z,6.65
2023-02-24T15:10:54.063Z,6.42
2023-02-24T15:13:43.473Z,6.39
2023-02-24T15:16:37.360Z,6.66
2023-02-24T15:19:04.618Z,6.50
2023-02-24T15:21:40.462Z,6.66
2023-02-24T15:24:25.063Z,6.35
2023-02-24T15:26:57.496Z,6.58
2023-02-24T15:29:27.652Z,6.47
2023-02-24T15:31:56.722Z,6.36
2023-02-24T15:34:29.740Z,6.53
2023-02-24T15:37:01.195Z,6.51
2023-02-24T15:39:31.261Z,6.63
2023-02-24T15:42:17.953Z,6.57
2023-02-24T15:44:53.665Z,6.51
2023-02-24T15:47:32.479Z,6.31
2023-02-24T15:49:59.358Z,6.42
2023-02-24T15:52:28.649Z,6.49
2023-02-24T15:54:57.884Z,6.48
2023-02-24T15:57:25.150Z,6.49
2023-02-24T15:59:51.914Z,6.36
2023-02-24T16:02:21.681Z,6.29
2023-02-24T16:04:49.699Z,6.41
2023-02-24T16:07:20.820Z,6.16
2023-02-24T16:09:49.745Z,6.18
2023-02-24T16:12:24.063Z,6.29
2023-02-24T16:14:55.798Z,6.32
2023-02-24T16:17:33.081Z,6.29
2023-02-24T16:20:00.448Z,6.10
2023-02-24T16:22:28.310Z,6.14
2023-02-24T16:24:55.075Z,6.33
2023-02-24T16:27:23.448Z,6.19
2023-02-24T16:29:51.086Z,6.16
2023-02-24T16:32:25.741Z,6.10
2023-02-24T16:34:53.179Z,6.07
2023-02-24T16:37:22.876Z,5.98
2023-02-24T16:39:49.777Z,5.78
2023-02-24T16:42:17.522Z,5.86
2023-02-24T16:44:44.669Z,6.03
2023-02-24T16:47:20.515Z,5.96
2023-02-24T16:49:47.342Z,5.53
2023-02-24T16:52:18.996Z,5.98
2023-02-24T16:54:47.667Z,5.81
2023-02-24T16:57:14.258Z,5.68
2023-02-24T16:59:40.924Z,5.84
2023-02-24T17:02:18.128Z,5.71
2023-02-24T17:04:44.718Z,5.88
2023-02-24T17:07:11.375Z,5.93
2023-02-24T17:09:37.935Z,5.84
2023-02-24T17:12:04.902Z,5.73
2023-02-24T17:14:31.528Z,5.51
2023-02-24T17:17:00.990Z,5.44
2023-02-24T17:19:27.631Z,5.43
2023-02-24T17:21:54.323Z,5.58
2023-02-24T17:24:21.034Z,5.69
2023-02-24T17:26:47.740Z,5.57
2023-02-24T17:29:14.770Z,5.48
2023-02-24T17:31:42.262Z,5.27
2023-02-24T17:34:09.941Z,5.41
2023-02-24T17:36:36.535Z,5.57
2023-02-24T17:39:03.252Z,5.49
2023-02-24T17:41:29.988Z,5.20
2023-02-24T17:43:56.597Z,5.11
2023-02-24T17:46:23.507Z,4.99
2023-02-24T17:48:50.319Z,5.29
2023-02-24T17:51:18.808Z,5.03
2023-02-24T17:53:45.842Z,5.13
2023-02-24T17:56:12.651Z,5.10
2023-02-24T17:58:40.067Z,5.00
2023-02-24T18:01:07.528Z,5.07
2023-02-24T18:03:36.175Z,5.04
2023-02-24T18:06:06.391Z,4.93
2023-02-24T18:08:34.362Z,5.08
2023-02-24T18:11:01.369Z,5.08
2023-02-24T18:13:30.250Z,5.23
2023-02-24T18:15:57.525Z,5.02
2023-02-24T18:18:25.484Z,4.92
2023-02-24T18:20:52.298Z,5.09
2023-02-24T18:23:19.458Z,4.81
2023-02-24T18:25:46.075Z,4.77
2023-02-24T18:28:12.678Z,5.07
2023-02-24T18:30:39.903Z,4.95
2023-02-24T18:33:06.749Z,4.50
2023-02-24T18:35:34.064Z,4.74
2023-02-24T18:38:00.729Z,4.75
2023-02-24T18:40:28.007Z,4.55
2023-02-24T18:42:55.454Z,4.48
2023-02-24T18:45:23.943Z,4.65
2023-02-24T18:47:51.558Z,3.01
2023-02-24T18:50:18.968Z,4.74
2023-02-24T18:52:45.618Z,4.53
2023-02-24T18:55:12.210Z,4.01
2023-02-24T18:57:40.144Z,4.46
2023-02-24T19:00:07.377Z,4.33
2023-02-24T19:02:34.057Z,4.12
2023-02-24T19:05:00.701Z,3.68
2023-02-24T19:07:27.404Z,3.10
2023-02-24T19:09:54.118Z,3.02
2023-02-24T19:12:21.402Z,2.79
2023-02-24T19:14:52.252Z,2.89
2023-02-24T19:17:20.201Z,2.72
2023-02-24T19:19:46.831Z,2.60
2023-02-24T19:22:13.523Z,2.81
2023-02-24T19:24:40.233Z,2.72
2023-02-24T19:27:08.682Z,2.60
2023-02-24T19:29:35.637Z,2.35
2023-02-24T19:32:02.557Z,2.51
2023-02-24T19:34:29.354Z,2.41
2023-02-24T19:36:55.968Z,2.19
2023-02-24T19:39:22.690Z,2.27
2023-02-24T19:41:49.887Z,2.24
2023-02-24T19:44:16.904Z,2.20
2023-02-24T19:46:43.834Z,1.73
2023-02-24T19:49:10.509Z,1.83
2023-02-24T19:51:37.257Z,1.70
2023-02-24T19:54:05.907Z,1.85
2023-02-24T19:56:35.518Z,1.83
2023-02-24T19:59:03.161Z,1.82
2023-02-24T20:01:30.577Z,1.45
2023-02-24T20:03:59.829Z,1.60
2023-02-24T20:06:33.946Z,1.70
2023-02-24T20:09:01.541Z,1.60
2023-02-24T20:11:29.864Z,1.66
2023-02-24T20:13:56.564Z,1.36
2023-02-24T20:16:25.261Z,1.51
2023-02-24T20:18:55.184Z,1.61
2023-02-24T20:21:21.983Z,1.57
2023-02-24T20:23:48.708Z,1.52
2023-02-24T20:26:16.352Z,1.69
2023-02-24T20:28:47.331Z,1.70
2023-02-24T20:31:18.545Z,1.74
2023-02-24T20:33:47.103Z,1.74
2023-02-24T20:36:20.330Z,1.72
2023-02-24T20:38:47.666Z,1.71
2023-02-24T20:41:15.083Z,1.63
2023-02-24T20:43:41.755Z,1.58
2023-02-24T20:46:24.687Z,1.40
2023-02-24T20:48:53.181Z,1.45
2023-02-24T20:51:20.152Z,1.34
2023-02-24T20:53:56.594Z,1.39
2023-02-24T20:56:29.111Z,1.19
2023-02-24T20:59:02.388Z,1.34
2023-02-24T21:01:30.388Z,1.36
2023-02-24T21:03:57.422Z,1.33
2023-02-24T21:06:24.971Z,1.14
2023-02-24T21:08:53.328Z,1.19
2023-02-24T21:11:21.844Z,1.08
2023-02-24T21:13:50.186Z,0.96
2023-02-24T21:16:18.239Z,1.25
2023-02-24T21:18:47.336Z,1.21
2023-02-24T21:21:15.362Z,0.95
2023-02-24T21:23:43.521Z,1.10
2023-02-24T21:26:11.156Z,1.03
2023-02-24T21:28:38.671Z,1.09
2023-02-24T21:31:11.496Z,0.77
2023-02-24T21:33:41.688Z,1.01
2023-02-24T21:36:13.587Z,0.95
2023-02-24T21:38:41.335Z,0.81
2023-02-24T21:41:13.532Z,0.94
2023-02-24T21:43:40.484Z,0.89
2023-02-24T21:46:09.105Z,0.58
2023-02-24T21:48:37.073Z,0.84
2023-02-24T21:51:06.771Z,0.56
2023-02-24T21:53:35.699Z,0.79
2023-02-24T21:56:03.715Z,0.78
2023-02-24T21:58:32.393Z,0.69
2023-02-24T22:01:07.998Z,0.62
2023-02-24T22:03:34.704Z,0.79
2023-02-24T22:06:01.586Z,0.72
2023-02-24T22:08:28.814Z,0.66
2023-02-24T22:10:59.848Z,0.81
2023-02-24T22:13:26.926Z,0.79
2023-02-24T22:15:53.831Z,0.72
2023-02-24T22:18:21.250Z,0.72
2023-02-24T22:20:48.171Z,0.63
2023-02-24T22:23:15.104Z,0.65
2023-02-24T22:25:41.728Z,0.57
2023-02-24T22:28:08.419Z,0.62
2023-02-24T22:30:35.233Z,0.77
2023-02-24T22:33:01.914Z,0.75
2023-02-24T22:35:28.537Z,0.58
2023-02-24T22:37:55.305Z,0.74
2023-02-24T22:40:21.937Z,0.78
2023-02-24T22:42:48.617Z,0.83
2023-02-24T22:45:15.394Z,0.79
2023-02-24T22:47:42.034Z,0.86
2023-02-24T22:50:09.671Z,0.93
2023-02-24T22:52:36.345Z,0.68
2023-02-24T22:55:03.022Z,0.88
2023-02-24T22:57:32.702Z,0.79
2023-02-24T22:59:59.742Z,0.75
2023-02-24T23:02:27.424Z,0.83
2023-02-24T23:04:54.073Z,0.78
2023-02-24T23:07:20.717Z,0.69
2023-02-24T23:09:52.792Z,0.87
2023-02-24T23:12:20.807Z,1.04
2023-02-24T23:14:47.469Z,0.83
2023-02-24T23:17:14.131Z,0.88
2023-02-24T23:19:40.744Z,1.04
2023-02-24T23:22:08.320Z,0.98
2023-02-24T23:24:36.104Z,0.95
2023-02-24T23:27:03.005Z,0.92
2023-02-24T23:29:30.867Z,0.99
2023-02-24T23:31:58.181Z,0.91
2023-02-24T23:34:25.156Z,0.88
2023-02-24T23:36:52.158Z,0.73
2023-02-24T23:39:23.096Z,0.92
2023-02-24T23:41:50.379Z,0.91
2023-02-24T23:44:17.019Z,0.91
2023-02-24T23:46:43.987Z,0.92
2023-02-24T23:49:10.596Z,0.81
2023-02-24T23:51:47.946Z,0.32
2023-02-24T23:54:17.024Z,0.79
2023-02-24T23:56:43.759Z,0.80
2023-02-24T23:59:10.372Z,0.55
